Time;durP1;ratioP1;P1;durP2;ratioP2;P2;SDS_P1;SDS_P2;PMS_P1;PMS_P2;Temp;Humidity;BMP_temperature;BMP_pressure;BME280_temperature;BME280_humidity;BME280_pressure;Samples;Min_cycle;Max_cycle;Signal;HPM_P1;HPM_P2
2022/12/05 00:00:50;;;;;;;24.33;21.40;;;;;;;;;;4946667;29;20321;-82
2022/12/05 00:03:15;;;;;;;26.90;22.27;;;;;;;;;;4970205;28;20307;-81
2022/12/05 00:05:41;;;;;;;25.17;21.67;;;;;;;;;;4943391;29;20222;-88
2022/12/05 00:08:06;;;;;;;27.40;21.83;;;;;;;;;;4972090;28;20222;-88
2022/12/05 00:10:35;;;;;;;29.37;22.90;;;;;;;;;;4948979;28;20266;-85
2022/12/05 00:13:00;;;;;;;24.90;21.90;;;;;;;;;;4952716;28;20235;-85
2022/12/05 00:15:28;;;;;;;27.03;22.07;;;;;;;;;;4923886;28;20588;-83
2022/12/05 00:18:01;;;;;;;26.30;21.80;;;;;;;;;;4924371;29;20219;-83
2022/12/05 00:20:31;;;;;;;32.40;23.33;;;;;;;;;;4937912;29;20237;-87
2022/12/05 00:22:59;;;;;;;29.27;22.73;;;;;;;;;;4939512;28;20227;-87
2022/12/05 00:25:25;;;;;;;25.83;21.50;;;;;;;;;;4938587;28;20334;-86
2022/12/05 00:27:53;;;;;;;25.90;21.73;;;;;;;;;;4950944;28;20231;-82
2022/12/05 00:30:21;;;;;;;24.47;20.00;;;;;;;;;;4944432;28;20242;-83
2022/12/05 00:32:46;;;;;;;30.10;23.00;;;;;;;;;;4935955;29;20224;-88
2022/12/05 00:35:14;;;;;;;24.83;21.90;;;;;;;;;;4965645;28;20235;-85
2022/12/05 00:37:42;;;;;;;27.40;21.17;;;;;;;;;;4948562;29;20310;-87
2022/12/05 00:40:24;;;;;;;27.57;22.50;;;;;;;;;;4934200;29;20243;-84
2022/12/05 00:42:52;;;;;;;29.83;23.27;;;;;;;;;;4929877;29;20223;-80
2022/12/05 00:45:20;;;;;;;31.03;24.13;;;;;;;;;;4970868;28;20267;-83
2022/12/05 00:47:50;;;;;;;26.87;22.17;;;;;;;;;;4940815;29;20294;-83
2022/12/05 00:50:18;;;;;;;27.50;22.37;;;;;;;;;;4950420;28;20242;-87
2022/12/05 00:52:43;;;;;;;29.63;22.97;;;;;;;;;;4943641;29;20237;-87
2022/12/05 00:55:13;;;;;;;27.00;22.60;;;;;;;;;;4945556;28;20716;-81
2022/12/05 00:57:39;;;;;;;30.40;23.23;;;;;;;;;;4918702;29;20231;-87
2022/12/05 01:00:08;;;;;;;27.07;21.93;;;;;;;;;;4951770;29;20289;-81
2022/12/05 01:02:35;;;;;;;26.83;22.97;;;;;;;;;;4943565;29;20215;-87
2022/12/05 01:05:03;;;;;;;28.43;22.63;;;;;;;;;;4962577;28;20593;-88
2022/12/05 01:07:31;;;;;;;30.30;22.63;;;;;;;;;;4931269;29;20223;-86
2022/12/05 01:10:04;;;;;;;28.43;22.70;;;;;;;;;;4941884;29;20286;-86
2022/12/05 01:12:32;;;;;;;32.20;23.97;;;;;;;;;;4920110;29;20641;-83
2022/12/05 01:14:59;;;;;;;27.13;23.37;;;;;;;;;;4949292;29;20230;-83
2022/12/05 01:17:25;;;;;;;30.90;23.53;;;;;;;;;;4913165;29;20223;-86
2022/12/05 01:19:53;;;;;;;30.63;21.73;;;;;;;;;;4961398;28;20318;-84
2022/12/05 01:22:22;;;;;;;27.90;21.33;;;;;;;;;;4942860;28;20234;-84
2022/12/05 01:24:47;;;;;;;25.80;22.60;;;;;;;;;;4934465;29;20243;-87
2022/12/05 01:27:13;;;;;;;32.67;22.17;;;;;;;;;;4945925;28;20229;-84
2022/12/05 01:29:41;;;;;;;25.53;20.90;;;;;;;;;;4929615;29;20222;-87
2022/12/05 01:32:06;;;;;;;28.73;22.60;;;;;;;;;;4943748;28;20234;-84
2022/12/05 01:34:32;;;;;;;29.63;22.03;;;;;;;;;;4944091;29;20238;-87
2022/12/05 01:36:57;;;;;;;28.33;22.03;;;;;;;;;;4966775;28;20238;-82
2022/12/05 01:39:23;;;;;;;31.93;22.60;;;;;;;;;;4939459;29;20233;-83
2022/12/05 01:41:53;;;;;;;27.63;22.20;;;;;;;;;;4960126;29;20219;-79
2022/12/05 01:44:22;;;;;;;27.43;22.23;;;;;;;;;;4965498;28;20294;-81
2022/12/05 01:46:49;;;;;;;27.10;21.23;;;;;;;;;;4985390;28;20226;-81
2022/12/05 01:49:17;;;;;;;30.13;23.43;;;;;;;;;;4969829;28;20259;-81
2022/12/05 01:52:03;;;;;;;30.33;22.30;;;;;;;;;;4975609;29;20207;-82
2022/12/05 01:54:29;;;;;;;32.27;23.23;;;;;;;;;;4953020;29;20261;-84
2022/12/05 01:56:59;;;;;;;29.73;22.33;;;;;;;;;;4965964;28;20231;-84
2022/12/05 01:59:25;;;;;;;28.07;22.27;;;;;;;;;;4932491;28;20231;-82
2022/12/05 02:01:50;;;;;;;26.73;21.23;;;;;;;;;;4960787;28;20223;-83
2022/12/05 02:04:18;;;;;;;32.07;22.80;;;;;;;;;;4944510;28;20284;-84
2022/12/05 02:06:46;;;;;;;29.13;21.97;;;;;;;;;;4948249;29;20245;-84
2022/12/05 02:09:11;;;;;;;26.43;21.93;;;;;;;;;;4962518;28;20731;-83
2022/12/05 02:11:58;;;;;;;29.77;22.27;;;;;;;;;;4960883;28;20290;-84
2022/12/05 02:14:48;;;;;;;31.23;23.33;;;;;;;;;;4968361;28;20310;-83
2022/12/05 02:17:19;;;;;;;32.47;23.53;;;;;;;;;;4966588;28;20294;-84
2022/12/05 02:20:01;;;;;;;29.93;23.27;;;;;;;;;;4964222;28;20666;-82
2022/12/05 02:22:52;;;;;;;32.97;23.17;;;;;;;;;;4936410;29;20313;-81
2022/12/05 02:25:36;;;;;;;29.43;22.63;;;;;;;;;;4908839;29;20239;-83
2022/12/05 02:28:32;;;;;;;29.10;21.80;;;;;;;;;;4918894;29;20238;-85
2022/12/05 02:31:13;;;;;;;29.80;23.07;;;;;;;;;;4938314;29;20308;-85
2022/12/05 02:33:46;;;;;;;28.93;22.03;;;;;;;;;;4913234;29;20227;-85
2022/12/05 02:36:42;;;;;;;33.87;23.47;;;;;;;;;;4934725;28;20258;-84
2022/12/05 02:39:10;;;;;;;30.10;22.63;;;;;;;;;;4925848;28;20382;-83
2022/12/05 02:41:36;;;;;;;29.13;21.60;;;;;;;;;;4945698;28;20234;-84
2022/12/05 02:44:35;;;;;;;31.67;23.57;;;;;;;;;;4955740;28;20228;-84
2022/12/05 02:47:01;;;;;;;26.90;22.27;;;;;;;;;;4919079;29;20282;-86
2022/12/05 02:49:31;;;;;;;31.50;23.17;;;;;;;;;;4935834;29;20227;-84
2022/12/05 02:51:59;;;;;;;29.53;23.37;;;;;;;;;;4919461;29;20616;-85
2022/12/05 02:54:31;;;;;;;29.93;22.50;;;;;;;;;;4951105;28;20219;-85
2022/12/05 02:56:59;;;;;;;29.10;23.53;;;;;;;;;;4950796;28;20234;-83
2022/12/05 02:59:24;;;;;;;30.20;23.57;;;;;;;;;;4951027;28;20722;-84
2022/12/05 03:01:52;;;;;;;30.13;21.73;;;;;;;;;;4954927;28;20234;-84
2022/12/05 03:04:24;;;;;;;28.47;23.03;;;;;;;;;;4914613;28;20724;-83
2022/12/05 03:06:52;;;;;;;30.20;21.17;;;;;;;;;;4937524;29;21021;-82
2022/12/05 03:09:24;;;;;;;31.57;23.67;;;;;;;;;;4938008;28;20244;-86
2022/12/05 03:11:54;;;;;;;29.57;23.07;;;;;;;;;;4956547;29;20231;-85
2022/12/05 03:14:27;;;;;;;32.53;22.97;;;;;;;;;;4946666;28;20242;-86
2022/12/05 03:16:58;;;;;;;31.13;24.00;;;;;;;;;;4939306;29;20323;-86
2022/12/05 03:19:34;;;;;;;29.97;22.70;;;;;;;;;;4946091;28;20242;-86
2022/12/05 03:22:02;;;;;;;25.20;20.30;;;;;;;;;;4964933;28;20238;-84
2022/12/05 03:24:27;;;;;;;28.60;22.67;;;;;;;;;;4939948;29;20768;-85
2022/12/05 03:27:06;;;;;;;28.87;22.37;;;;;;;;;;4952785;28;20230;-84
2022/12/05 03:29:53;;;;;;;29.33;22.60;;;;;;;;;;4918699;29;20227;-86
2022/12/05 03:32:37;;;;;;;25.80;20.90;;;;;;;;;;4962926;28;20230;-86
2022/12/05 03:35:19;;;;;;;25.90;21.07;;;;;;;;;;4961134;28;20224;-84
2022/12/05 03:37:51;;;;;;;24.37;20.90;;;;;;;;;;4935273;29;20262;-87
2022/12/05 03:40:32;;;;;;;27.40;21.93;;;;;;;;;;4936662;29;20294;-86
2022/12/05 03:43:34;;;;;;;26.70;21.80;;;;;;;;;;4957946;28;20710;-86
2022/12/05 03:46:04;;;;;;;28.00;21.37;;;;;;;;;;4918918;28;20230;-84
2022/12/05 03:48:31;;;;;;;25.67;20.40;;;;;;;;;;4930001;29;20227;-82
2022/12/05 03:50:59;;;;;;;26.57;21.60;;;;;;;;;;4929168;28;20302;-85
2022/12/05 03:53:27;;;;;;;29.27;20.30;;;;;;;;;;4917385;28;20231;-82
2022/12/05 03:56:07;;;;;;;24.80;21.20;;;;;;;;;;4914791;29;20235;-84
2022/12/05 03:58:47;;;;;;;24.47;19.60;;;;;;;;;;4950650;29;20680;-83
2022/12/05 04:01:15;;;;;;;24.77;21.13;;;;;;;;;;4929919;29;20214;-83
2022/12/05 04:03:52;;;;;;;24.00;20.43;;;;;;;;;;4951895;28;20228;-84
2022/12/05 04:06:25;;;;;;;23.97;19.93;;;;;;;;;;4925942;28;20710;-83
2022/12/05 04:09:04;;;;;;;28.43;20.40;;;;;;;;;;4935806;29;20234;-83
2022/12/05 04:11:33;;;;;;;25.07;21.20;;;;;;;;;;4912563;29;20696;-83
2022/12/05 04:14:01;;;;;;;24.87;20.03;;;;;;;;;;4924111;29;20231;-82
2022/12/05 04:19:19;;;;;;;26.73;19.40;;;;;;;;;;4948321;28;20238;-84
2022/12/05 04:21:48;;;;;;;24.50;19.53;;;;;;;;;;4931019;29;20242;-81
2022/12/05 04:27:20;;;;;;;20.53;17.37;;;;;;;;;;4940730;29;20495;-83
2022/12/05 04:30:01;;;;;;;22.43;18.53;;;;;;;;;;4959645;28;20286;-84
2022/12/05 04:32:38;;;;;;;23.07;18.13;;;;;;;;;;4947698;28;20245;-85
2022/12/05 04:35:08;;;;;;;22.97;18.23;;;;;;;;;;4945487;29;20597;-83
2022/12/05 04:37:36;;;;;;;21.00;17.93;;;;;;;;;;4916078;29;20597;-84
2022/12/05 04:40:11;;;;;;;23.10;17.80;;;;;;;;;;4944463;28;20301;-83
2022/12/05 04:42:37;;;;;;;21.53;18.53;;;;;;;;;;4943361;29;20233;-84
2022/12/05 04:45:05;;;;;;;22.83;16.80;;;;;;;;;;4945233;28;20234;-83
2022/12/05 04:47:36;;;;;;;23.80;17.13;;;;;;;;;;4932213;29;20297;-84
2022/12/05 04:50:05;;;;;;;20.03;17.40;;;;;;;;;;4946242;28;20246;-82
2022/12/05 04:52:33;;;;;;;24.17;18.00;;;;;;;;;;4932587;29;20231;-84
2022/12/05 04:55:14;;;;;;;23.73;18.57;;;;;;;;;;4966156;28;20239;-84
2022/12/05 04:57:51;;;;;;;19.23;17.23;;;;;;;;;;4925275;28;20965;-85
2022/12/05 05:00:16;;;;;;;18.90;16.90;;;;;;;;;;4938495;28;20238;-83
2022/12/05 05:03:11;;;;;;;21.03;16.90;;;;;;;;;;4939540;29;20586;-83
2022/12/05 05:05:39;;;;;;;22.90;16.63;;;;;;;;;;4955807;28;20231;-82
2022/12/05 05:08:10;;;;;;;20.57;17.30;;;;;;;;;;4947864;28;20227;-84
2022/12/05 05:10:38;;;;;;;18.73;16.23;;;;;;;;;;4942227;28;20609;-84
2022/12/05 05:13:06;;;;;;;23.57;17.60;;;;;;;;;;4940607;28;20234;-85
2022/12/05 05:15:32;;;;;;;21.87;17.13;;;;;;;;;;4946447;28;20238;-84
2022/12/05 05:17:57;;;;;;;17.73;15.83;;;;;;;;;;4957230;28;20232;-83
2022/12/05 05:20:26;;;;;;;19.60;16.77;;;;;;;;;;4963401;28;20241;-82
2022/12/05 05:22:54;;;;;;;19.77;17.23;;;;;;;;;;4936649;28;20927;-81
2022/12/05 05:25:20;;;;;;;17.70;15.80;;;;;;;;;;4935639;28;20227;-83
2022/12/05 05:27:52;;;;;;;20.17;16.80;;;;;;;;;;4947343;28;20999;-84
2022/12/05 05:30:21;;;;;;;20.43;16.40;;;;;;;;;;4932754;29;20937;-83
2022/12/05 05:32:46;;;;;;;19.43;16.53;;;;;;;;;;4929534;29;20311;-83
2022/12/05 05:35:12;;;;;;;17.77;15.87;;;;;;;;;;4951175;28;20592;-83
2022/12/05 05:37:38;;;;;;;17.37;15.47;;;;;;;;;;4956996;28;20233;-84
2022/12/05 05:40:07;;;;;;;16.93;15.13;;;;;;;;;;4935961;28;20739;-83
2022/12/05 05:42:33;;;;;;;17.93;15.67;;;;;;;;;;4938465;28;20233;-83
2022/12/05 05:44:58;;;;;;;17.30;15.10;;;;;;;;;;4949961;28;20230;-83
2022/12/05 05:47:24;;;;;;;16.07;14.27;;;;;;;;;;4969505;28;20691;-80
2022/12/05 05:49:54;;;;;;;17.67;15.03;;;;;;;;;;4955255;28;20534;-83
2022/12/05 05:52:20;;;;;;;17.33;14.50;;;;;;;;;;4935122;28;20235;-83
2022/12/05 05:54:45;;;;;;;16.63;14.53;;;;;;;;;;4941304;29;20249;-80
2022/12/05 05:57:13;;;;;;;17.57;14.60;;;;;;;;;;4946028;29;20231;-82
2022/12/05 05:59:38;;;;;;;16.70;14.97;;;;;;;;;;4950762;28;20664;-81
2022/12/05 06:02:04;;;;;;;16.10;14.27;;;;;;;;;;4946644;28;20235;-83
2022/12/05 06:04:29;;;;;;;17.47;15.17;;;;;;;;;;4954139;28;20249;-82
2022/12/05 06:06:55;;;;;;;16.37;14.53;;;;;;;;;;4945085;28;20671;-83
2022/12/05 06:09:20;;;;;;;16.57;14.87;;;;;;;;;;4925133;29;20953;-83
2022/12/05 06:11:51;;;;;;;16.77;14.97;;;;;;;;;;4952611;28;20231;-81
2022/12/05 06:14:22;;;;;;;17.97;15.23;;;;;;;;;;4967968;28;20231;-82
2022/12/05 06:16:48;;;;;;;17.83;15.47;;;;;;;;;;4929570;29;20227;-82
2022/12/05 06:19:16;;;;;;;15.37;13.77;;;;;;;;;;4967629;28;20230;-82
2022/12/05 06:21:41;;;;;;;16.00;14.20;;;;;;;;;;4944088;29;20222;-82
2022/12/05 06:24:09;;;;;;;17.13;15.33;;;;;;;;;;4968374;28;20237;-81
2022/12/05 06:26:35;;;;;;;17.83;15.73;;;;;;;;;;4933727;29;20219;-82
2022/12/05 06:29:00;;;;;;;16.30;14.47;;;;;;;;;;4944343;28;20223;-82
2022/12/05 06:31:29;;;;;;;17.70;15.37;;;;;;;;;;4931421;28;20237;-81
2022/12/05 06:33:58;;;;;;;17.50;15.60;;;;;;;;;;4972305;28;20254;-82
2022/12/05 06:36:23;;;;;;;19.40;15.33;;;;;;;;;;4959378;28;20264;-81
2022/12/05 06:38:51;;;;;;;17.47;15.60;;;;;;;;;;4960498;28;20222;-81
2022/12/05 06:41:18;;;;;;;19.67;15.67;;;;;;;;;;4935005;29;20231;-82
2022/12/05 06:43:43;;;;;;;19.00;15.80;;;;;;;;;;4949263;29;20227;-82
2022/12/05 06:46:10;;;;;;;21.97;16.30;;;;;;;;;;4966756;28;20661;-81
2022/12/05 06:48:36;;;;;;;16.93;15.20;;;;;;;;;;4924815;29;20242;-82
2022/12/05 06:51:01;;;;;;;17.97;15.73;;;;;;;;;;4941742;29;20231;-82
2022/12/05 06:53:27;;;;;;;18.63;15.57;;;;;;;;;;4929791;29;20219;-83
2022/12/05 06:56:00;;;;;;;17.23;14.57;;;;;;;;;;4951503;28;20231;-82
2022/12/05 06:58:29;;;;;;;17.90;16.00;;;;;;;;;;4945296;28;20285;-82
2022/12/05 07:03:42;;;;;;;20.67;15.50;;;;;;;;;;4938264;28;20222;-79
2022/12/05 07:06:10;;;;;;;21.23;16.07;;;;;;;;;;4977361;28;20239;-82
2022/12/05 07:08:36;;;;;;;19.77;16.83;;;;;;;;;;4947628;28;20219;-80
2022/12/05 07:11:02;;;;;;;23.37;18.03;;;;;;;;;;4942285;29;20253;-80
2022/12/05 07:13:28;;;;;;;21.13;17.20;;;;;;;;;;4904654;29;20234;-81
2022/12/05 07:15:53;;;;;;;21.47;17.90;;;;;;;;;;4935178;29;20227;-82
2022/12/05 07:18:19;;;;;;;19.23;16.23;;;;;;;;;;4941636;28;20788;-80
2022/12/05 07:20:44;;;;;;;20.70;18.03;;;;;;;;;;4956172;29;20285;-83
2022/12/05 07:23:10;;;;;;;26.53;18.77;;;;;;;;;;4940128;28;20426;-79
2022/12/05 07:25:39;;;;;;;22.17;18.33;;;;;;;;;;4936112;29;20245;-81
2022/12/05 07:28:07;;;;;;;19.97;17.63;;;;;;;;;;4919667;29;20227;-81
2022/12/05 07:30:33;;;;;;;22.50;17.67;;;;;;;;;;4950396;28;20224;-81
2022/12/05 07:32:58;;;;;;;23.03;18.30;;;;;;;;;;4972139;28;20211;-81
2022/12/05 07:35:24;;;;;;;22.60;17.90;;;;;;;;;;4924338;28;20228;-83
2022/12/05 07:37:52;;;;;;;21.67;17.80;;;;;;;;;;4964681;28;20234;-78
2022/12/05 07:40:18;;;;;;;27.23;17.83;;;;;;;;;;4916412;29;20238;-79
2022/12/05 07:42:48;;;;;;;23.07;17.17;;;;;;;;;;4957486;28;20262;-81
2022/12/05 07:45:14;;;;;;;20.63;17.33;;;;;;;;;;4945368;29;20235;-80
2022/12/05 07:47:40;;;;;;;22.13;16.30;;;;;;;;;;4952829;28;20226;-80
2022/12/05 07:50:06;;;;;;;19.80;16.53;;;;;;;;;;4956342;28;20253;-81
2022/12/05 07:52:33;;;;;;;20.87;16.33;;;;;;;;;;4961750;28;20215;-80
2022/12/05 07:55:01;;;;;;;18.93;16.20;;;;;;;;;;4958784;28;20236;-82
2022/12/05 07:57:32;;;;;;;20.03;15.33;;;;;;;;;;4947439;28;20249;-81
2022/12/05 07:59:58;;;;;;;19.77;16.07;;;;;;;;;;4942085;28;20238;-79
2022/12/05 08:02:23;;;;;;;19.43;16.33;;;;;;;;;;4923665;28;20223;-81
2022/12/05 08:04:49;;;;;;;26.90;15.93;;;;;;;;;;4946762;28;20258;-82
2022/12/05 08:07:14;;;;;;;18.70;15.40;;;;;;;;;;4935241;28;20889;-79
2022/12/05 08:09:40;;;;;;;19.17;16.17;;;;;;;;;;4964784;28;20706;-80
2022/12/05 08:12:06;;;;;;;17.07;15.17;;;;;;;;;;4934924;28;20265;-78
2022/12/05 08:14:31;;;;;;;18.93;16.77;;;;;;;;;;4935798;29;20657;-82
2022/12/05 08:16:57;;;;;;;21.90;18.40;;;;;;;;;;4942664;28;20234;-78
2022/12/05 08:19:22;;;;;;;20.77;17.07;;;;;;;;;;4951285;28;20242;-78
2022/12/05 08:21:51;;;;;;;19.67;15.83;;;;;;;;;;4942859;29;20218;-78
2022/12/05 08:24:16;;;;;;;20.67;15.87;;;;;;;;;;4943411;28;20227;-79
2022/12/05 08:26:44;;;;;;;18.27;15.83;;;;;;;;;;4949540;28;20297;-78
2022/12/05 08:29:12;;;;;;;19.47;16.77;;;;;;;;;;4932594;28;20219;-80
2022/12/05 08:31:48;;;;;;;20.80;16.57;;;;;;;;;;4938028;29;20238;-81
2022/12/05 08:34:14;;;;;;;17.30;15.47;;;;;;;;;;4946218;28;20305;-78
2022/12/05 08:36:39;;;;;;;23.23;16.00;;;;;;;;;;4959346;28;20306;-80
2022/12/05 08:39:06;;;;;;;17.43;14.33;;;;;;;;;;4942441;28;20759;-78
2022/12/05 08:41:31;;;;;;;16.30;14.53;;;;;;;;;;4957864;28;20223;-78
2022/12/05 08:44:04;;;;;;;17.07;14.60;;;;;;;;;;4941438;28;20230;-80
2022/12/05 08:46:34;;;;;;;18.63;14.90;;;;;;;;;;4956673;28;20230;-81
2022/12/05 08:49:03;;;;;;;20.13;14.63;;;;;;;;;;4927573;28;20245;-82
2022/12/05 08:51:28;;;;;;;19.80;15.03;;;;;;;;;;4925508;29;20314;-81
2022/12/05 08:53:55;;;;;;;19.37;15.97;;;;;;;;;;4919785;29;20728;-79
2022/12/05 08:56:20;;;;;;;17.20;13.97;;;;;;;;;;4913578;29;20791;-81
2022/12/05 08:58:46;;;;;;;19.00;15.47;;;;;;;;;;4928548;29;20226;-80
2022/12/05 09:01:19;;;;;;;15.67;13.33;;;;;;;;;;4921750;29;20219;-82
2022/12/05 09:03:44;;;;;;;16.40;13.80;;;;;;;;;;4941456;28;20724;-80
2022/12/05 09:06:11;;;;;;;29.30;15.33;;;;;;;;;;4941707;28;20383;-79
2022/12/05 09:08:37;;;;;;;20.03;14.70;;;;;;;;;;4942524;28;20308;-81
2022/12/05 09:11:10;;;;;;;16.73;14.27;;;;;;;;;;4961130;28;20226;-80
2022/12/05 09:13:36;;;;;;;19.53;14.00;;;;;;;;;;4948101;28;20317;-82
2022/12/05 09:16:11;;;;;;;18.10;14.23;;;;;;;;;;4950246;28;20258;-80
2022/12/05 09:18:39;;;;;;;18.30;14.23;;;;;;;;;;4917121;29;20214;-81
2022/12/05 09:21:10;;;;;;;21.13;14.20;;;;;;;;;;4915733;29;20261;-80
2022/12/05 09:23:36;;;;;;;18.47;14.43;;;;;;;;;;4940387;28;20230;-79
2022/12/05 09:26:02;;;;;;;18.17;14.03;;;;;;;;;;4965135;28;20679;-80
2022/12/05 09:28:28;;;;;;;19.53;14.97;;;;;;;;;;4942151;29;20305;-81
2022/12/05 09:31:01;;;;;;;17.43;14.20;;;;;;;;;;4961122;28;20231;-79
2022/12/05 09:33:27;;;;;;;20.57;15.23;;;;;;;;;;4943065;28;20223;-80
2022/12/05 09:35:53;;;;;;;17.40;14.30;;;;;;;;;;4947682;28;20238;-80
2022/12/05 09:38:19;;;;;;;20.47;15.57;;;;;;;;;;4933529;28;20235;-80
2022/12/05 09:40:44;;;;;;;19.77;14.67;;;;;;;;;;4915129;29;20366;-80
2022/12/05 09:43:25;;;;;;;20.07;15.00;;;;;;;;;;4928940;28;20218;-79
2022/12/05 09:46:26;;;;;;;19.20;15.47;;;;;;;;;;4934801;29;20254;-80
2022/12/05 09:48:52;;;;;;;19.33;14.80;;;;;;;;;;4926883;29;20309;-81
2022/12/05 09:51:17;;;;;;;17.13;14.53;;;;;;;;;;4921749;28;20218;-80
2022/12/05 09:53:43;;;;;;;18.20;14.97;;;;;;;;;;4962675;28;20250;-82
2022/12/05 09:56:08;;;;;;;20.40;14.27;;;;;;;;;;4964434;28;20227;-82
2022/12/05 09:58:42;;;;;;;18.47;13.70;;;;;;;;;;4958749;28;20580;-81
2022/12/05 10:01:41;;;;;;;17.97;14.47;;;;;;;;;;4943136;28;20240;-82
2022/12/05 10:04:17;;;;;;;21.33;14.17;;;;;;;;;;4947409;28;20671;-79
2022/12/05 10:07:08;;;;;;;19.00;13.77;;;;;;;;;;4952074;28;20237;-82
2022/12/05 10:09:55;;;;;;;18.20;13.43;;;;;;;;;;4942071;29;20266;-78
2022/12/05 10:12:43;;;;;;;19.90;14.03;;;;;;;;;;4956785;28;20231;-82
2022/12/05 10:15:26;;;;;;;16.10;13.13;;;;;;;;;;4950434;28;20237;-79
2022/12/05 10:17:57;;;;;;;19.43;13.67;;;;;;;;;;4963635;28;20977;-81
2022/12/05 10:20:29;;;;;;;19.60;13.23;;;;;;;;;;4943159;28;24963;-80
2022/12/05 10:22:59;;;;;;;17.50;13.53;;;;;;;;;;4937348;28;20223;-80
2022/12/05 10:25:27;;;;;;;15.10;13.40;;;;;;;;;;4962524;28;20566;-81
2022/12/05 10:27:55;;;;;;;16.37;13.67;;;;;;;;;;4943561;29;20238;-82
2022/12/05 10:30:22;;;;;;;15.30;12.80;;;;;;;;;;4943593;28;20234;-81
2022/12/05 10:32:55;;;;;;;17.20;13.30;;;;;;;;;;4938199;29;20927;-83
2022/12/05 10:35:27;;;;;;;18.33;12.60;;;;;;;;;;4945781;28;20234;-81
2022/12/05 10:37:55;;;;;;;14.33;11.83;;;;;;;;;;4946441;28;20241;-82
2022/12/05 10:40:20;;;;;;;16.57;11.80;;;;;;;;;;4962978;28;20242;-80
2022/12/05 10:42:47;;;;;;;14.87;10.90;;;;;;;;;;4944163;29;20234;-81
2022/12/05 10:45:21;;;;;;;13.80;11.57;;;;;;;;;;4942228;29;20235;-83
2022/12/05 10:47:52;;;;;;;14.10;10.80;;;;;;;;;;4935685;29;20279;-83
2022/12/05 10:50:35;;;;;;;14.67;10.40;;;;;;;;;;4931703;29;20792;-81
2022/12/05 10:53:04;;;;;;;12.57;10.63;;;;;;;;;;4950690;28;20223;-82
2022/12/05 10:55:35;;;;;;;12.97;10.70;;;;;;;;;;4937819;29;20235;-80
2022/12/05 10:58:12;;;;;;;13.23;10.53;;;;;;;;;;4936707;29;20234;-81
2022/12/05 11:00:45;;;;;;;15.60;11.10;;;;;;;;;;4931047;29;20230;-80
2022/12/05 11:03:25;;;;;;;12.90;10.00;;;;;;;;;;4962567;28;20235;-81
2022/12/05 11:05:53;;;;;;;14.10;10.73;;;;;;;;;;4963575;28;20255;-84
2022/12/05 11:08:50;;;;;;;12.03;10.83;;;;;;;;;;4913429;28;20676;-81
2022/12/05 11:11:20;;;;;;;12.50;11.00;;;;;;;;;;4930856;29;20219;-82
2022/12/05 11:13:53;;;;;;;13.33;11.50;;;;;;;;;;4941183;28;20231;-81
2022/12/05 11:16:36;;;;;;;13.47;11.33;;;;;;;;;;4944743;28;20330;-80
2022/12/05 11:19:23;;;;;;;12.10;10.30;;;;;;;;;;4943483;28;20215;-81
2022/12/05 11:21:48;;;;;;;13.27;10.33;;;;;;;;;;4942456;28;20228;-79
2022/12/05 11:24:25;;;;;;;15.20;11.77;;;;;;;;;;4922809;29;20224;-81
2022/12/05 11:26:51;;;;;;;15.03;11.33;;;;;;;;;;4948498;28;20222;-81
2022/12/05 11:29:31;;;;;;;13.17;11.07;;;;;;;;;;4940365;28;20230;-81
2022/12/05 11:31:57;;;;;;;11.43;9.90;;;;;;;;;;4947955;28;20219;-79
2022/12/05 11:34:27;;;;;;;11.23;10.03;;;;;;;;;;4931637;29;20306;-82
2022/12/05 11:36:56;;;;;;;11.60;10.33;;;;;;;;;;4950334;28;20235;-79
2022/12/05 11:39:22;;;;;;;11.10;9.97;;;;;;;;;;4915775;29;20689;-82
2022/12/05 11:42:06;;;;;;;18.27;10.50;;;;;;;;;;4935178;29;20237;-83
2022/12/05 11:45:28;;;;;;;12.30;10.63;;;;;;;;;;4946519;28;20254;-81
2022/12/05 11:48:05;;;;;;;13.17;10.50;;;;;;;;;;4954872;28;20318;-84
2022/12/05 11:50:54;;;;;;;11.87;10.30;;;;;;;;;;4973849;28;20226;-82
2022/12/05 11:53:28;;;;;;;10.63;9.53;;;;;;;;;;4953220;28;20301;-83
2022/12/05 11:56:02;;;;;;;13.50;11.77;;;;;;;;;;4967363;28;20217;-80
2022/12/05 11:58:37;;;;;;;11.40;9.90;;;;;;;;;;4957874;28;20235;-84
2022/12/05 12:01:20;;;;;;;13.53;10.77;;;;;;;;;;4970519;28;20241;-83
2022/12/05 12:04:04;;;;;;;12.33;10.17;;;;;;;;;;4949520;29;20718;-82
2022/12/05 12:06:42;;;;;;;10.63;9.60;;;;;;;;;;4951702;28;20226;-82
2022/12/05 12:09:42;;;;;;;12.47;9.97;;;;;;;;;;4966719;28;20269;-83
2022/12/05 12:12:34;;;;;;;9.73;8.73;;;;;;;;;;4939190;28;20231;-82
2022/12/05 12:15:01;;;;;;;10.57;9.37;;;;;;;;;;4951177;29;20317;-82
2022/12/05 12:17:42;;;;;;;9.87;8.87;;;;;;;;;;4949956;28;20306;-84
2022/12/05 12:20:29;;;;;;;10.40;9.40;;;;;;;;;;4975002;28;20235;-84
2022/12/05 12:23:10;;;;;;;12.50;11.30;;;;;;;;;;4940601;28;20234;-82
2022/12/05 12:25:44;;;;;;;10.53;9.43;;;;;;;;;;4962708;28;20235;-83
2022/12/05 12:28:48;;;;;;;11.70;8.90;;;;;;;;;;4979236;28;20221;-82
2022/12/05 12:31:38;;;;;;;9.80;8.90;;;;;;;;;;4899802;29;20239;-81
2022/12/05 12:34:22;;;;;;;9.27;8.37;;;;;;;;;;4914861;29;20260;-83
2022/12/05 12:37:00;;;;;;;10.10;8.67;;;;;;;;;;4932304;29;20233;-83
2022/12/05 12:39:46;;;;;;;9.97;8.90;;;;;;;;;;4938248;28;20285;-83
2022/12/05 12:42:19;;;;;;;12.23;9.37;;;;;;;;;;4967942;28;20942;-82
2022/12/05 12:44:57;;;;;;;11.57;9.33;;;;;;;;;;4966324;28;20608;-83
2022/12/05 12:47:38;;;;;;;9.83;8.83;;;;;;;;;;4959184;28;20310;-81
2022/12/05 12:50:14;;;;;;;10.77;8.40;;;;;;;;;;4936298;28;20285;-82
2022/12/05 12:53:17;;;;;;;12.53;9.67;;;;;;;;;;4959544;28;20230;-82
2022/12/05 12:55:45;;;;;;;10.77;9.67;;;;;;;;;;4955160;28;20234;-82
2022/12/05 12:58:26;;;;;;;12.20;8.57;;;;;;;;;;4971116;28;20222;-83
2022/12/05 13:01:24;;;;;;;10.80;9.37;;;;;;;;;;4964112;28;20235;-80
2022/12/05 13:04:05;;;;;;;10.70;9.60;;;;;;;;;;4950406;28;20338;-83
2022/12/05 13:06:44;;;;;;;10.50;9.13;;;;;;;;;;4966659;28;20711;-82
2022/12/05 13:09:18;;;;;;;11.30;9.27;;;;;;;;;;4931310;28;20244;-83
2022/12/05 13:11:44;;;;;;;10.50;9.23;;;;;;;;;;4944755;28;20299;-82
2022/12/05 13:14:12;;;;;;;10.07;8.50;;;;;;;;;;4953160;28;20235;-83
2022/12/05 13:16:42;;;;;;;12.50;9.00;;;;;;;;;;4963772;28;20223;-83
2022/12/05 13:19:26;;;;;;;10.63;8.60;;;;;;;;;;4944853;28;21103;-82
2022/12/05 13:21:51;;;;;;;10.57;9.17;;;;;;;;;;4938470;28;20219;-83
2022/12/05 13:24:18;;;;;;;9.63;8.50;;;;;;;;;;4931586;28;20242;-83
2022/12/05 13:26:47;;;;;;;12.93;8.93;;;;;;;;;;4969120;28;20238;-80
2022/12/05 13:29:28;;;;;;;10.73;8.57;;;;;;;;;;4938136;28;20229;-82
2022/12/05 13:31:53;;;;;;;9.83;8.57;;;;;;;;;;4970781;28;20219;-82
2022/12/05 13:34:38;;;;;;;10.57;8.43;;;;;;;;;;4918633;28;20225;-83
2022/12/05 13:42:45;;;;;;;9.60;8.60;;;;;;;;;;4948830;28;20231;-82
2022/12/05 13:45:14;;;;;;;11.57;8.67;;;;;;;;;;4946462;28;20226;-83
2022/12/05 13:48:11;;;;;;;13.60;8.87;;;;;;;;;;4963903;28;20238;-82
2022/12/05 13:50:50;;;;;;;10.40;7.93;;;;;;;;;;4953378;28;20222;-82
2022/12/05 13:53:32;;;;;;;8.47;7.10;;;;;;;;;;4957520;28;20234;-81
2022/12/05 13:56:05;;;;;;;8.07;6.37;;;;;;;;;;4965537;28;20230;-82
2022/12/05 13:58:46;;;;;;;7.77;6.87;;;;;;;;;;4939001;29;20223;-82
2022/12/05 14:01:26;;;;;;;7.83;6.90;;;;;;;;;;4953973;28;20233;-83
2022/12/05 14:03:54;;;;;;;7.10;6.40;;;;;;;;;;4954600;28;20246;-83
2022/12/05 14:06:38;;;;;;;7.57;6.83;;;;;;;;;;4966931;28;20234;-80
2022/12/05 14:09:15;;;;;;;9.07;7.50;;;;;;;;;;4951751;28;20224;-82
2022/12/05 14:12:10;;;;;;;7.43;6.67;;;;;;;;;;4961761;28;20237;-83
2022/12/05 14:14:54;;;;;;;7.33;6.60;;;;;;;;;;4950347;28;20239;-84
2022/12/05 14:17:25;;;;;;;9.13;7.10;;;;;;;;;;4949445;28;20229;-82
2022/12/05 14:20:11;;;;;;;9.40;8.17;;;;;;;;;;4942550;28;20235;-82
2022/12/05 14:23:21;;;;;;;7.50;6.67;;;;;;;;;;4976800;28;20306;-80
2022/12/05 14:25:54;;;;;;;8.17;7.37;;;;;;;;;;4913422;29;20250;-80
2022/12/05 14:28:34;;;;;;;7.70;6.90;;;;;;;;;;4981173;28;20305;-83
2022/12/05 14:31:20;;;;;;;9.33;7.20;;;;;;;;;;4963039;28;20229;-83
2022/12/05 14:34:02;;;;;;;7.83;7.03;;;;;;;;;;4982187;28;20222;-79
2022/12/05 14:36:32;;;;;;;7.20;6.53;;;;;;;;;;4932831;29;20258;-83
2022/12/05 14:39:00;;;;;;;6.93;6.30;;;;;;;;;;4985443;28;20236;-82
2022/12/05 14:41:34;;;;;;;7.00;5.73;;;;;;;;;;4944932;29;20254;-81
2022/12/05 14:43:59;;;;;;;6.10;5.50;;;;;;;;;;4980095;28;20223;-81
2022/12/05 14:46:31;;;;;;;5.80;5.30;;;;;;;;;;4941188;29;20243;-81
2022/12/05 14:49:19;;;;;;;6.97;6.10;;;;;;;;;;4983159;28;20234;-80
2022/12/05 14:51:56;;;;;;;7.07;6.27;;;;;;;;;;4951701;29;20219;-81
2022/12/05 14:54:24;;;;;;;6.43;5.43;;;;;;;;;;4956032;29;20216;-81
2022/12/05 14:56:58;;;;;;;6.97;6.27;;;;;;;;;;4958862;28;20249;-79
2022/12/05 14:59:28;;;;;;;7.90;6.77;;;;;;;;;;4970255;28;21042;-83
2022/12/05 15:01:56;;;;;;;7.23;6.53;;;;;;;;;;4951251;29;20223;-84
2022/12/05 15:04:31;;;;;;;7.73;6.93;;;;;;;;;;4943162;28;20226;-82